Eiwa Maru — JG5742 — position and weather

sailwx.info

Track history (hours):
 
Tides and Currents Weather Stations Pressure Air Temp Water Temp Dewpoint Dewpoint Depression Visibility Wind Speed Wind Dir Waves Ship Positions

Eiwa Maru

Last reported at 2017-Jan-21 14:33 UTC. Time now 2017-Jan-21 15:40 UTC.
Position N 35°31' E 139°59'.

Length 80 m; draft 3.8 m.

Type: Ship (hazmat cat A). MMSI: 431101045.

Date/timePositionNaut miles runAvg speedWind from/ knotsBaromVisibWave heightAir tempDewpointWater temp
2017-Jan-21 14:33N 35°31' E 139°59'0 0.0
2017-Jan-21 13:33N 35°31' E 139°59'0 0.0
2017-Jan-21 12:33N 35°31' E 139°59'0 0.1
2017-Jan-21 11:33N 35°31' E 139°59'0 0.0
2017-Jan-21 10:30N 35°31' E 139°59'0 0.0
2017-Jan-21 09:30N 35°31' E 139°59'0 0.0
2017-Jan-21 08:27N 35°31' E 139°59'0 0.1
2017-Jan-21 07:30N 35°31' E 139°59'0 0.1
2017-Jan-21 06:33N 35°31' E 139°59'0 0.0
2017-Jan-21 05:33N 35°31' E 139°59'0 0.1
2017-Jan-21 04:34N 35°31' E 139°59'0 0.0
2017-Jan-21 03:33N 35°31' E 139°59'0 0.0
2017-Jan-21 02:33N 35°31' E 139°59'0 0.0
2017-Jan-21 01:34N 35°31' E 139°59'0 0.0
2017-Jan-21 00:33N 35°31' E 139°59'0 0.0
2017-Jan-20 23:33N 35°31' E 139°59'0 0.0
2017-Jan-20 22:33N 35°31' E 139°59'0 0.0
2017-Jan-20 21:33N 35°31' E 139°59'0 0.0
2017-Jan-20 20:33N 35°31' E 139°59'0 0.1
2017-Jan-20 19:33N 35°31' E 139°59'0 0.0
2017-Jan-20 18:33N 35°31' E 139°59'0 0.0
2017-Jan-20 17:33N 35°31' E 139°59'0 0.1
2017-Jan-20 16:33N 35°31' E 139°59'0 0.0
2017-Jan-20 15:33N 35°31' E 139°59'0 0.0
2017-Jan-20 14:33N 35°31' E 139°59'0 0.0
2017-Jan-20 13:33N 35°31' E 139°59'0 0.0
2017-Jan-20 12:33N 35°31' E 139°59'0 0.0
2017-Jan-20 11:33N 35°31' E 139°59'0 0.0
2017-Jan-20 10:33N 35°31' E 139°59'0 0.0
2017-Jan-20 09:33N 35°31' E 139°59'0 0.0
2017-Jan-20 08:33N 35°31' E 139°59'0 0.0
2017-Jan-20 07:33N 35°31' E 139°59'0 0.0
2017-Jan-20 06:33N 35°31' E 139°59'0 0.0
2017-Jan-20 05:33N 35°31' E 139°59'0 0.0
2017-Jan-20 04:33N 35°31' E 139°59'0 0.0
2017-Jan-20 03:33N 35°31' E 139°59'0 0.0
2017-Jan-20 02:33N 35°31' E 139°59'0 0.0
2017-Jan-20 01:33N 35°31' E 139°59'0 0.0
2017-Jan-20 00:33N 35°31' E 139°59'0 0.0
2017-Jan-19 23:33N 35°31' E 139°59'0 0.0
2017-Jan-19 22:33N 35°31' E 139°59'0 0.0
2017-Jan-19 21:33N 35°31' E 139°59'0 0.0
2017-Jan-19 20:33N 35°31' E 139°59'0 0.0
2017-Jan-19 19:33N 35°31' E 139°59'0 0.0
2017-Jan-19 18:33N 35°31' E 139°59'0 0.0
2017-Jan-19 17:33N 35°31' E 139°59'0 0.0
2017-Jan-19 16:33N 35°31' E 139°59'0 0.0
2017-Jan-19 15:33N 35°31' E 139°59'2 2.3
2017-Jan-19 14:33N 35°31' E 139°56'1312.8
2017-Jan-19 13:33N 35°22' E 139°45'1212.0
2017-Jan-19 12:33N 35°10' E 139°47'243 7.3
2017-Jan-18 03:26N 34°05' E 135°03'4 2.1
2017-Jan-18 01:17N 34°07' E 135°08'0 0.0
2017-Jan-17 22:17N 34°07' E 135°08'0 0.6
2017-Jan-17 21:30N 34°07' E 135°08'0 0.2
2017-Jan-17 20:34N 34°07' E 135°07'0 0.0
2017-Jan-17 19:33N 34°07' E 135°07'0 0.0
2017-Jan-17 18:32N 34°07' E 135°07'0 0.1
2017-Jan-17 17:33N 34°07' E 135°07'0 0.1
2017-Jan-17 16:33N 34°07' E 135°07'0 0.0
2017-Jan-17 15:31N 34°07' E 135°07'0 0.1
2017-Jan-17 14:33N 34°07' E 135°07'0 0.2
2017-Jan-17 13:22N 34°07' E 135°07'0 0.0
2017-Jan-17 10:18N 34°07' E 135°07'0 0.4
2017-Jan-17 09:27N 34°07' E 135°08'0 0.0
2017-Jan-17 08:28N 34°07' E 135°08'0 0.0
2017-Jan-17 07:32N 34°07' E 135°08'234 9.2
2017-Jan-16 06:06N 35°08' E 139°43'712.6
2017-Jan-16 05:30N 35°15' E 139°46'1111.3
2017-Jan-16 04:34N 35°25' E 139°44'1312.7
2017-Jan-16 03:33N 35°31' E 139°57'4 0.8
2017-Jan-15 22:22N 35°31' E 140°02'3 3.4
2017-Jan-15 21:34N 35°33' E 140°01'0 0.1
2017-Jan-15 20:33N 35°33' E 140°01'0 0.0
2017-Jan-15 19:33N 35°33' E 140°01'0 0.0
2017-Jan-15 18:33N 35°33' E 140°01'0 0.0
2017-Jan-15 17:30N 35°33' E 140°01'0 0.0
2017-Jan-15 16:33N 35°33' E 140°01'0 0.0
2017-Jan-15 15:33N 35°33' E 140°01'0 0.1
2017-Jan-15 14:33N 35°33' E 140°01'0 0.0
2017-Jan-15 13:33N 35°33' E 140°01'0 0.0
2017-Jan-15 12:33N 35°33' E 140°01'0 0.0
2017-Jan-15 11:09N 35°33' E 140°01'0 0.0
2017-Jan-15 10:33N 35°33' E 140°01'0 0.0
2017-Jan-15 09:33N 35°33' E 140°01'0 0.0
2017-Jan-15 08:30N 35°33' E 140°01'0 0.0
2017-Jan-15 07:30N 35°33' E 140°01'0 0.0
2017-Jan-15 06:30N 35°33' E 140°01'0 0.0
2017-Jan-15 05:33N 35°33' E 140°01'0 0.0
2017-Jan-15 04:30N 35°33' E 140°01'0 0.0
2017-Jan-15 03:30N 35°33' E 140°01'0 0.0
2017-Jan-15 02:27N 35°33' E 140°01'0 0.0
2017-Jan-15 01:30N 35°33' E 140°01'0 0.0
2017-Jan-15 00:27N 35°33' E 140°01'0 0.0
2017-Jan-14 23:33N 35°33' E 140°01'4 4.5
2017-Jan-14 22:33N 35°34' E 139°56'2 2.1
2017-Jan-14 21:34N 35°35' E 139°54'0 0.0
2017-Jan-14 20:33N 35°35' E 139°54'0 0.0
2017-Jan-14 19:34N 35°35' E 139°54'0 0.0
2017-Jan-14 18:33N 35°35' E 139°54'0 0.0
2017-Jan-14 17:33N 35°35' E 139°54'0 0.1
2017-Jan-14 16:33N 35°35' E 139°54'0 0.0
2017-Jan-14 15:34N 35°35' E 139°54'0 0.1
2017-Jan-14 14:34N 35°35' E 139°54'0 0.0
2017-Jan-14 13:34N 35°35' E 139°54'0 0.0
2017-Jan-14 12:34N 35°35' E 139°54'0 0.0
2017-Jan-14 11:34N 35°35' E 139°54'0 0.0
2017-Jan-14 10:34N 35°35' E 139°54'0 0.0
2017-Jan-14 09:34N 35°35' E 139°54'0 0.0
2017-Jan-14 08:33N 35°35' E 139°54'0 0.0
2017-Jan-14 07:34N 35°35' E 139°54'0 0.0
2017-Jan-14 06:33N 35°35' E 139°54'0 0.0
2017-Jan-14 05:34N 35°35' E 139°54'5 4.7
2017-Jan-14 04:33N 35°31' E 139°52'4 4.2
2017-Jan-14 03:33N 35°31' E 139°46'0 0.0
2017-Jan-13 23:34N 35°31' E 139°46'0 0.0
2017-Jan-13 22:33N 35°31' E 139°46'2 2.2
2017-Jan-13 21:33N 35°29' E 139°48'0 0.2
2017-Jan-13 20:34N 35°29' E 139°48'0 0.0
2017-Jan-13 19:34N 35°29' E 139°48'0 0.1
2017-Jan-13 18:34N 35°29' E 139°48'9 9.1
2017-Jan-13 17:34N 35°20' E 139°45'1212.0
2017-Jan-13 16:32N 35°08' E 139°46'24511.1
2017-Jan-12 18:24N 34°02' E 134°60'1213.7
2017-Jan-12 17:33N 34°13' E 134°59'1413.2
2017-Jan-12 16:31N 34°25' E 135°07'1313.2
2017-Jan-12 15:33N 34°32' E 135°20'5 4.5
2017-Jan-12 14:32N 34°33' E 135°26'0 0.0
2017-Jan-12 11:10N 34°33' E 135°26'0 0.0
2017-Jan-12 10:30N 34°33' E 135°26'0 0.0
2017-Jan-12 09:33N 34°33' E 135°26'0 0.0
2017-Jan-12 08:33N 34°33' E 135°26'0 0.0
2017-Jan-12 07:32N 34°33' E 135°26'0 0.0
2017-Jan-12 06:33N 34°33' E 135°26'3 3.3
2017-Jan-12 05:33N 34°33' E 135°22'2 1.8
2017-Jan-12 04:32N 34°32' E 135°20'0 0.1
2017-Jan-12 03:33N 34°32' E 135°20'0 0.0
2017-Jan-12 02:33N 34°32' E 135°20'0 0.0
2017-Jan-12 01:28N 34°32' E 135°20'0 0.1
2017-Jan-12 00:33N 34°32' E 135°20'0 0.0
2017-Jan-11 23:33N 34°32' E 135°20'0 0.0
2017-Jan-11 22:32N 34°32' E 135°20'0 0.0
2017-Jan-11 21:33N 34°32' E 135°20'0 0.0
2017-Jan-11 20:33N 34°32' E 135°20'0 0.0
2017-Jan-11 19:33N 34°32' E 135°20'0 0.0
2017-Jan-11 18:33N 34°32' E 135°20'0 0.0
2017-Jan-11 17:33N 34°32' E 135°20'0 0.0
2017-Jan-11 16:33N 34°32' E 135°20'0 0.1
2017-Jan-11 15:33N 34°32' E 135°20'0 0.0
2017-Jan-11 14:33N 34°32' E 135°20'  
Track history (hours):
 
Tides and Currents Weather Stations Pressure Air Temp Water Temp Dewpoint Dewpoint Depression Visibility Wind Speed Wind Dir Waves Ship Positions

Eiwa Maru

Last reported at 2017-Jan-21 14:33 UTC. Time now 2017-Jan-21 15:40 UTC.
Position N 35°31' E 139°59'.

Length 80 m; draft 3.8 m.

Type: Ship (hazmat cat A). MMSI: 431101045.

Date/timePositionNaut miles runAvg speedWind from/ knotsBaromVisibWave heightAir tempDewpointWater temp
2017-Jan-21 14:33N 35°31' E 139°59'0 0.0
2017-Jan-21 13:33N 35°31' E 139°59'0 0.0
2017-Jan-21 12:33N 35°31' E 139°59'0 0.1
2017-Jan-21 11:33N 35°31' E 139°59'0 0.0
2017-Jan-21 10:30N 35°31' E 139°59'0 0.0
2017-Jan-21 09:30N 35°31' E 139°59'0 0.0
2017-Jan-21 08:27N 35°31' E 139°59'0 0.1
2017-Jan-21 07:30N 35°31' E 139°59'0 0.1
2017-Jan-21 06:33N 35°31' E 139°59'0 0.0
2017-Jan-21 05:33N 35°31' E 139°59'0 0.1
2017-Jan-21 04:34N 35°31' E 139°59'0 0.0
2017-Jan-21 03:33N 35°31' E 139°59'0 0.0
2017-Jan-21 02:33N 35°31' E 139°59'0 0.0
2017-Jan-21 01:34N 35°31' E 139°59'0 0.0
2017-Jan-21 00:33N 35°31' E 139°59'0 0.0
2017-Jan-20 23:33N 35°31' E 139°59'0 0.0
2017-Jan-20 22:33N 35°31' E 139°59'0 0.0
2017-Jan-20 21:33N 35°31' E 139°59'0 0.0
2017-Jan-20 20:33N 35°31' E 139°59'0 0.1
2017-Jan-20 19:33N 35°31' E 139°59'0 0.0
2017-Jan-20 18:33N 35°31' E 139°59'0 0.0
2017-Jan-20 17:33N 35°31' E 139°59'0 0.1
2017-Jan-20 16:33N 35°31' E 139°59'0 0.0
2017-Jan-20 15:33N 35°31' E 139°59'0 0.0
2017-Jan-20 14:33N 35°31' E 139°59'0 0.0
2017-Jan-20 13:33N 35°31' E 139°59'0 0.0
2017-Jan-20 12:33N 35°31' E 139°59'0 0.0
2017-Jan-20 11:33N 35°31' E 139°59'0 0.0
2017-Jan-20 10:33N 35°31' E 139°59'0 0.0
2017-Jan-20 09:33N 35°31' E 139°59'0 0.0
2017-Jan-20 08:33N 35°31' E 139°59'0 0.0
2017-Jan-20 07:33N 35°31' E 139°59'0 0.0
2017-Jan-20 06:33N 35°31' E 139°59'0 0.0
2017-Jan-20 05:33N 35°31' E 139°59'0 0.0
2017-Jan-20 04:33N 35°31' E 139°59'0 0.0
2017-Jan-20 03:33N 35°31' E 139°59'0 0.0
2017-Jan-20 02:33N 35°31' E 139°59'0 0.0
2017-Jan-20 01:33N 35°31' E 139°59'0 0.0
2017-Jan-20 00:33N 35°31' E 139°59'0 0.0
2017-Jan-19 23:33N 35°31' E 139°59'0 0.0
2017-Jan-19 22:33N 35°31' E 139°59'0 0.0
2017-Jan-19 21:33N 35°31' E 139°59'0 0.0
2017-Jan-19 20:33N 35°31' E 139°59'0 0.0
2017-Jan-19 19:33N 35°31' E 139°59'0 0.0
2017-Jan-19 18:33N 35°31' E 139°59'0 0.0
2017-Jan-19 17:33N 35°31' E 139°59'0 0.0
2017-Jan-19 16:33N 35°31' E 139°59'0 0.0
2017-Jan-19 15:33N 35°31' E 139°59'2 2.3
2017-Jan-19 14:33N 35°31' E 139°56'1312.8
2017-Jan-19 13:33N 35°22' E 139°45'1212.0
2017-Jan-19 12:33N 35°10' E 139°47'243 7.3
2017-Jan-18 03:26N 34°05' E 135°03'4 2.1
2017-Jan-18 01:17N 34°07' E 135°08'0 0.0
2017-Jan-17 22:17N 34°07' E 135°08'0 0.6
2017-Jan-17 21:30N 34°07' E 135°08'0 0.2
2017-Jan-17 20:34N 34°07' E 135°07'0 0.0
2017-Jan-17 19:33N 34°07' E 135°07'0 0.0
2017-Jan-17 18:32N 34°07' E 135°07'0 0.1
2017-Jan-17 17:33N 34°07' E 135°07'0 0.1
2017-Jan-17 16:33N 34°07' E 135°07'0 0.0
2017-Jan-17 15:31N 34°07' E 135°07'0 0.1
2017-Jan-17 14:33N 34°07' E 135°07'0 0.2
2017-Jan-17 13:22N 34°07' E 135°07'0 0.0
2017-Jan-17 10:18N 34°07' E 135°07'0 0.4
2017-Jan-17 09:27N 34°07' E 135°08'0 0.0
2017-Jan-17 08:28N 34°07' E 135°08'0 0.0
2017-Jan-17 07:32N 34°07' E 135°08'234 9.2
2017-Jan-16 06:06N 35°08' E 139°43'712.6
2017-Jan-16 05:30N 35°15' E 139°46'1111.3
2017-Jan-16 04:34N 35°25' E 139°44'1312.7
2017-Jan-16 03:33N 35°31' E 139°57'4 0.8
2017-Jan-15 22:22N 35°31' E 140°02'3 3.4
2017-Jan-15 21:34N 35°33' E 140°01'0 0.1
2017-Jan-15 20:33N 35°33' E 140°01'0 0.0
2017-Jan-15 19:33N 35°33' E 140°01'0 0.0
2017-Jan-15 18:33N 35°33' E 140°01'0 0.0
2017-Jan-15 17:30N 35°33' E 140°01'0 0.0
2017-Jan-15 16:33N 35°33' E 140°01'0 0.0
2017-Jan-15 15:33N 35°33' E 140°01'0 0.1
2017-Jan-15 14:33N 35°33' E 140°01'0 0.0
2017-Jan-15 13:33N 35°33' E 140°01'0 0.0
2017-Jan-15 12:33N 35°33' E 140°01'0 0.0
2017-Jan-15 11:09N 35°33' E 140°01'0 0.0
2017-Jan-15 10:33N 35°33' E 140°01'0 0.0
2017-Jan-15 09:33N 35°33' E 140°01'0 0.0
2017-Jan-15 08:30N 35°33' E 140°01'0 0.0
2017-Jan-15 07:30N 35°33' E 140°01'0 0.0
2017-Jan-15 06:30N 35°33' E 140°01'0 0.0
2017-Jan-15 05:33N 35°33' E 140°01'0 0.0
2017-Jan-15 04:30N 35°33' E 140°01'0 0.0
2017-Jan-15 03:30N 35°33' E 140°01'0 0.0
2017-Jan-15 02:27N 35°33' E 140°01'0 0.0
2017-Jan-15 01:30N 35°33' E 140°01'0 0.0
2017-Jan-15 00:27N 35°33' E 140°01'0 0.0
2017-Jan-14 23:33N 35°33' E 140°01'4 4.5
2017-Jan-14 22:33N 35°34' E 139°56'2 2.1
2017-Jan-14 21:34N 35°35' E 139°54'0 0.0
2017-Jan-14 20:33N 35°35' E 139°54'0 0.0
2017-Jan-14 19:34N 35°35' E 139°54'0 0.0
2017-Jan-14 18:33N 35°35' E 139°54'0 0.0
2017-Jan-14 17:33N 35°35' E 139°54'0 0.1
2017-Jan-14 16:33N 35°35' E 139°54'0 0.0
2017-Jan-14 15:34N 35°35' E 139°54'0 0.1
2017-Jan-14 14:34N 35°35' E 139°54'0 0.0
2017-Jan-14 13:34N 35°35' E 139°54'0 0.0
2017-Jan-14 12:34N 35°35' E 139°54'0 0.0
2017-Jan-14 11:34N 35°35' E 139°54'0 0.0
2017-Jan-14 10:34N 35°35' E 139°54'0 0.0
2017-Jan-14 09:34N 35°35' E 139°54'0 0.0
2017-Jan-14 08:33N 35°35' E 139°54'0 0.0
2017-Jan-14 07:34N 35°35' E 139°54'0 0.0
2017-Jan-14 06:33N 35°35' E 139°54'0 0.0
2017-Jan-14 05:34N 35°35' E 139°54'5 4.7
2017-Jan-14 04:33N 35°31' E 139°52'4 4.2
2017-Jan-14 03:33N 35°31' E 139°46'0 0.0
2017-Jan-13 23:34N 35°31' E 139°46'0 0.0
2017-Jan-13 22:33N 35°31' E 139°46'2 2.2
2017-Jan-13 21:33N 35°29' E 139°48'0 0.2
2017-Jan-13 20:34N 35°29' E 139°48'0 0.0
2017-Jan-13 19:34N 35°29' E 139°48'0 0.1
2017-Jan-13 18:34N 35°29' E 139°48'9 9.1
2017-Jan-13 17:34N 35°20' E 139°45'1212.0
2017-Jan-13 16:32N 35°08' E 139°46'24511.1
2017-Jan-12 18:24N 34°02' E 134°60'1213.7
2017-Jan-12 17:33N 34°13' E 134°59'1413.2
2017-Jan-12 16:31N 34°25' E 135°07'1313.2
2017-Jan-12 15:33N 34°32' E 135°20'5 4.5
2017-Jan-12 14:32N 34°33' E 135°26'0 0.0
2017-Jan-12 11:10N 34°33' E 135°26'0 0.0
2017-Jan-12 10:30N 34°33' E 135°26'0 0.0
2017-Jan-12 09:33N 34°33' E 135°26'0 0.0
2017-Jan-12 08:33N 34°33' E 135°26'0 0.0
2017-Jan-12 07:32N 34°33' E 135°26'0 0.0
2017-Jan-12 06:33N 34°33' E 135°26'3 3.3
2017-Jan-12 05:33N 34°33' E 135°22'2 1.8
2017-Jan-12 04:32N 34°32' E 135°20'0 0.1
2017-Jan-12 03:33N 34°32' E 135°20'0 0.0
2017-Jan-12 02:33N 34°32' E 135°20'0 0.0
2017-Jan-12 01:28N 34°32' E 135°20'0 0.1
2017-Jan-12 00:33N 34°32' E 135°20'0 0.0
2017-Jan-11 23:33N 34°32' E 135°20'0 0.0
2017-Jan-11 22:32N 34°32' E 135°20'0 0.0
2017-Jan-11 21:33N 34°32' E 135°20'0 0.0
2017-Jan-11 20:33N 34°32' E 135°20'0 0.0
2017-Jan-11 19:33N 34°32' E 135°20'0 0.0
2017-Jan-11 18:33N 34°32' E 135°20'0 0.0
2017-Jan-11 17:33N 34°32' E 135°20'0 0.0
2017-Jan-11 16:33N 34°32' E 135°20'0 0.1
2017-Jan-11 15:33N 34°32' E 135°20'0 0.0
2017-Jan-11 14:33N 34°32' E 135°20'  

Dump ship's entire track history